Time;durP1;ratioP1;P1;durP2;ratioP2;P2;SDS_P1;SDS_P2;PMS_P1;PMS_P2;Temp;Humidity;BMP_temperature;BMP_pressure;BME280_temperature;BME280_humidity;BME280_pressure;Samples;Min_cycle;Max_cycle;Signal;HPM_P1;HPM_P2
2021/04/30 00:01:06;;;;;;;9.63;5.47;;;6.40;99.90;;;;;;5072078;28;20182;-76
2021/04/30 00:03:32;;;;;;;10.43;4.83;;;6.40;99.90;;;;;;5092093;28;20477;-76
2021/04/30 00:05:58;;;;;;;10.90;5.20;;;6.50;99.90;;;;;;5094455;28;20414;-77
2021/04/30 00:08:23;;;;;;;9.80;4.60;;;6.60;99.90;;;;;;5095767;28;20435;-77
2021/04/30 00:10:49;;;;;;;14.40;7.17;;;6.50;99.90;;;;;;5098112;28;20637;-78
2021/04/30 00:13:14;;;;;;;7.57;4.70;;;6.40;99.90;;;;;;5097958;28;20201;-78
2021/04/30 00:15:40;;;;;;;8.07;5.90;;;6.40;99.90;;;;;;5084819;28;20225;-77
2021/04/30 00:18:06;;;;;;;7.17;5.90;;;6.40;99.90;;;;;;5079003;28;20175;-77
2021/04/30 00:20:33;;;;;;;8.97;5.43;;;6.50;99.90;;;;;;5085550;28;20191;-77
2021/04/30 00:22:59;;;;;;;10.40;5.70;;;6.40;99.90;;;;;;5094776;28;20205;-78
2021/04/30 00:25:25;;;;;;;9.80;5.87;;;6.50;99.90;;;;;;5100288;28;20414;-77
2021/04/30 00:27:50;;;;;;;9.50;5.17;;;6.50;99.90;;;;;;5097312;28;20431;-77
2021/04/30 00:30:17;;;;;;;9.67;5.40;;;6.40;99.90;;;;;;5092814;28;20185;-77
2021/04/30 00:32:42;;;;;;;8.93;5.80;;;6.50;99.90;;;;;;5094897;28;20196;-77
2021/04/30 00:35:08;;;;;;;6.80;5.13;;;6.50;99.90;;;;;;5093429;28;20442;-76
2021/04/30 00:37:37;;;;;;;12.23;6.67;;;6.60;99.90;;;;;;5095123;28;20176;-77
2021/04/30 00:40:07;;;;;;;14.27;6.40;;;6.50;99.90;;;;;;5095017;28;20427;-78
2021/04/30 00:42:33;;;;;;;9.27;5.77;;;6.50;99.90;;;;;;5085515;28;20428;-78
2021/04/30 00:44:59;;;;;;;9.07;5.83;;;6.50;99.90;;;;;;5094092;28;20481;-77
2021/04/30 00:47:34;;;;;;;11.33;5.73;;;6.40;99.90;;;;;;5092837;28;20666;-77
2021/04/30 00:50:11;;;;;;;17.07;6.30;;;6.30;99.90;;;;;;5086501;28;20428;-77
2021/04/30 00:52:36;;;;;;;9.00;6.60;;;6.20;99.90;;;;;;5073349;28;20503;-77
2021/04/30 00:55:08;;;;;;;9.20;7.00;;;6.30;99.90;;;;;;5090693;28;20464;-77
2021/04/30 00:57:35;;;;;;;11.13;7.07;;;6.20;99.90;;;;;;5084646;28;20173;-78
2021/04/30 01:00:01;;;;;;;7.93;6.50;;;6.20;99.90;;;;;;5089306;28;20436;-75
2021/04/30 01:02:27;;;;;;;12.27;6.63;;;6.20;99.90;;;;;;5093641;28;20493;-76
2021/04/30 01:04:52;;;;;;;10.67;7.90;;;6.30;99.90;;;;;;5094313;28;20804;-76
2021/04/30 01:07:18;;;;;;;17.63;7.27;;;6.40;99.90;;;;;;5092364;28;20634;-77
2021/04/30 01:09:44;;;;;;;9.90;7.13;;;6.50;99.90;;;;;;5094053;28;20211;-76
2021/04/30 01:12:10;;;;;;;9.10;7.90;;;6.40;99.90;;;;;;5074324;28;20433;-77
2021/04/30 01:14:36;;;;;;;9.37;7.60;;;6.50;99.90;;;;;;5071768;28;20436;-77
2021/04/30 01:17:02;;;;;;;10.50;7.70;;;6.50;99.90;;;;;;5074077;28;20408;-77
2021/04/30 01:19:30;;;;;;;10.27;7.60;;;6.50;99.90;;;;;;5073846;28;20174;-77
2021/04/30 01:21:57;;;;;;;13.60;7.90;;;6.40;99.90;;;;;;5073994;28;20413;-77
2021/04/30 01:24:24;;;;;;;13.47;9.70;;;6.30;99.90;;;;;;5073906;28;20463;-77
2021/04/30 01:26:50;;;;;;;16.83;8.50;;;6.30;99.90;;;;;;5073747;28;20922;-76
2021/04/30 01:29:16;;;;;;;11.00;8.00;;;6.30;99.90;;;;;;5077654;28;20403;-77
2021/04/30 01:31:42;;;;;;;13.33;8.80;;;6.40;99.90;;;;;;5077673;28;20404;-78
2021/04/30 01:34:08;;;;;;;18.70;9.47;;;6.30;99.90;;;;;;5072739;28;20242;-78
2021/04/30 01:36:34;;;;;;;17.70;10.53;;;6.10;99.90;;;;;;5076453;28;20416;-78
2021/04/30 01:39:02;;;;;;;11.27;8.93;;;6.00;99.90;;;;;;5073658;28;20261;-79
2021/04/30 01:41:28;;;;;;;15.20;9.53;;;6.10;99.90;;;;;;5074618;28;20247;-77
2021/04/30 01:43:54;;;;;;;15.83;9.93;;;6.10;99.90;;;;;;5073736;28;20489;-77
2021/04/30 01:46:20;;;;;;;13.30;9.93;;;6.10;99.90;;;;;;5074540;28;20400;-77
2021/04/30 01:48:45;;;;;;;13.13;9.97;;;6.20;99.90;;;;;;5073925;28;20412;-77
2021/04/30 01:51:12;;;;;;;13.30;10.30;;;6.10;99.90;;;;;;5071800;28;20174;-77
2021/04/30 01:53:39;;;;;;;12.63;10.13;;;6.10;99.90;;;;;;5073626;28;20520;-77
2021/04/30 01:56:13;;;;;;;14.87;10.13;;;5.90;99.90;;;;;;5074015;28;20435;-76
2021/04/30 01:58:39;;;;;;;17.17;13.03;;;5.90;99.90;;;;;;5074372;28;20491;-76
2021/04/30 02:01:05;;;;;;;22.00;11.10;;;5.90;99.90;;;;;;5071514;28;20416;-77
2021/04/30 02:03:31;;;;;;;15.60;11.30;;;6.00;99.90;;;;;;5074037;28;20456;-76
2021/04/30 02:05:57;;;;;;;15.53;11.03;;;6.00;99.90;;;;;;5073010;28;20514;-77
2021/04/30 02:08:23;;;;;;;17.67;12.73;;;6.00;99.90;;;;;;5072954;28;20511;-76
2021/04/30 02:10:49;;;;;;;15.97;13.40;;;5.90;99.90;;;;;;5073359;28;20169;-77
2021/04/30 02:13:16;;;;;;;16.80;12.50;;;5.90;99.90;;;;;;5072049;28;20659;-76
2021/04/30 02:15:44;;;;;;;14.77;11.93;;;5.90;99.90;;;;;;5073474;28;20412;-77
2021/04/30 02:18:11;;;;;;;18.10;13.23;;;5.90;99.90;;;;;;5073344;28;20428;-77
2021/04/30 02:20:36;;;;;;;18.53;12.90;;;5.80;99.90;;;;;;5073310;28;20416;-77
2021/04/30 02:23:02;;;;;;;16.30;12.50;;;5.80;99.90;;;;;;5073026;28;20546;-76
2021/04/30 02:25:29;;;;;;;18.17;12.60;;;5.70;99.90;;;;;;5072326;28;20416;-77
2021/04/30 02:27:56;;;;;;;16.03;11.13;;;5.80;99.90;;;;;;5072784;28;20400;-76
2021/04/30 02:30:24;;;;;;;16.53;12.27;;;5.70;99.90;;;;;;5072513;28;20495;-77
2021/04/30 02:32:50;;;;;;;18.53;12.17;;;5.80;99.90;;;;;;5073656;28;20436;-77
2021/04/30 02:35:23;;;;;;;13.80;11.93;;;5.90;99.90;;;;;;5072646;28;20758;-77
2021/04/30 02:37:48;;;;;;;16.77;12.93;;;5.80;99.90;;;;;;5072501;28;20537;-77
2021/04/30 02:40:16;;;;;;;16.53;12.90;;;5.80;99.90;;;;;;5072756;28;20424;-77
2021/04/30 02:42:44;;;;;;;22.53;14.50;;;5.70;99.90;;;;;;5073579;28;21917;-76
2021/04/30 02:45:12;;;;;;;16.47;13.43;;;5.60;99.90;;;;;;5074312;28;20431;-77
2021/04/30 02:47:38;;;;;;;19.80;13.87;;;5.60;99.90;;;;;;5073800;28;20404;-77
2021/04/30 02:50:05;;;;;;;15.57;13.87;;;5.70;99.90;;;;;;5073727;28;20461;-77
2021/04/30 02:52:31;;;;;;;24.33;17.13;;;5.80;99.90;;;;;;5073437;28;20193;-77
2021/04/30 02:54:57;;;;;;;19.30;14.00;;;5.80;99.90;;;;;;5072396;28;20404;-76
2021/04/30 02:57:24;;;;;;;15.20;13.13;;;5.70;99.90;;;;;;5071592;28;20928;-77
2021/04/30 02:59:50;;;;;;;15.70;13.03;;;5.80;99.90;;;;;;5073243;28;20185;-77
2021/04/30 03:02:16;;;;;;;18.00;13.17;;;5.80;99.90;;;;;;5072526;28;20427;-77
2021/04/30 03:04:42;;;;;;;34.90;23.27;;;5.80;99.90;;;;;;5073795;28;20470;-77
2021/04/30 03:07:08;;;;;;;20.67;14.70;;;5.80;99.90;;;;;;5072233;28;20424;-77
2021/04/30 03:09:34;;;;;;;20.30;15.53;;;5.80;99.90;;;;;;5070492;28;20174;-76
2021/04/30 03:12:00;;;;;;;30.43;15.30;;;5.80;99.90;;;;;;5068069;28;20486;-74
2021/04/30 03:14:26;;;;;;;19.53;14.57;;;5.70;99.90;;;;;;5077589;28;20870;-77
2021/04/30 03:16:51;;;;;;;16.07;14.37;;;5.60;99.90;;;;;;5076149;28;20453;-77
2021/04/30 03:19:17;;;;;;;18.10;14.33;;;5.60;99.90;;;;;;5076078;28;21884;-77
2021/04/30 03:21:43;;;;;;;18.50;16.00;;;5.70;99.90;;;;;;5075874;28;20178;-76
2021/04/30 03:24:09;;;;;;;17.80;14.60;;;5.80;99.90;;;;;;5087320;28;20197;-75
2021/04/30 03:26:35;;;;;;;22.90;14.70;;;6.00;99.90;;;;;;5083982;28;20184;-75
2021/04/30 03:29:02;;;;;;;17.57;13.53;;;6.00;99.90;;;;;;5075358;28;20427;-75
2021/04/30 03:31:27;;;;;;;18.47;15.77;;;6.20;99.90;;;;;;5070726;28;20436;-75
2021/04/30 03:33:53;;;;;;;17.30;14.17;;;6.20;99.90;;;;;;5071210;28;20459;-75
2021/04/30 03:36:19;;;;;;;21.87;14.67;;;6.20;99.90;;;;;;5071330;28;20239;-75
2021/04/30 03:38:46;;;;;;;19.87;13.90;;;6.20;99.90;;;;;;5074031;28;20798;-75
2021/04/30 03:41:12;;;;;;;17.80;14.40;;;6.20;99.90;;;;;;5075225;28;20428;-76
2021/04/30 03:43:38;;;;;;;18.13;15.13;;;6.40;99.90;;;;;;5075375;28;20520;-76
2021/04/30 03:46:03;;;;;;;16.70;14.30;;;6.40;99.90;;;;;;5075401;28;20771;-76
2021/04/30 03:48:29;;;;;;;21.83;15.10;;;6.50;99.90;;;;;;5075419;28;20527;-75
2021/04/30 03:50:55;;;;;;;23.93;15.90;;;6.50;99.90;;;;;;5075472;28;20162;-75
2021/04/30 03:53:21;;;;;;;31.63;15.83;;;6.50;99.90;;;;;;5087322;28;20819;-75
2021/04/30 03:55:48;;;;;;;20.30;15.27;;;6.60;99.90;;;;;;5090464;28;20192;-75
2021/04/30 03:58:13;;;;;;;20.10;13.97;;;6.60;99.90;;;;;;5092557;28;20427;-77
2021/04/30 04:00:39;;;;;;;19.40;15.13;;;6.70;99.90;;;;;;5085237;28;20431;-75
2021/04/30 04:03:05;;;;;;;20.60;16.07;;;6.80;99.90;;;;;;5095523;28;20200;-76
2021/04/30 04:05:31;;;;;;;22.07;14.20;;;6.70;99.90;;;;;;5091645;28;20169;-75
2021/04/30 04:07:56;;;;;;;19.57;14.33;;;6.70;99.90;;;;;;5080605;28;20407;-77
2021/04/30 04:10:22;;;;;;;18.60;14.97;;;6.70;99.90;;;;;;5089540;28;20172;-75
2021/04/30 04:12:47;;;;;;;18.87;15.00;;;6.50;99.90;;;;;;5082412;28;20280;-76
2021/04/30 04:15:13;;;;;;;24.13;17.23;;;6.60;99.90;;;;;;5090831;28;20170;-76
2021/04/30 04:17:39;;;;;;;17.10;13.83;;;6.50;99.90;;;;;;5075854;28;20182;-76
2021/04/30 04:20:05;;;;;;;34.97;23.53;;;6.70;99.90;;;;;;5074038;28;20432;-75
2021/04/30 04:22:31;;;;;;;28.47;20.47;;;6.80;99.90;;;;;;5080011;28;20232;-76
2021/04/30 04:24:56;;;;;;;20.87;17.10;;;6.70;99.90;;;;;;5090559;28;20959;-75
2021/04/30 04:27:23;;;;;;;17.93;13.57;;;6.60;99.90;;;;;;5088463;28;20655;-76
2021/04/30 04:29:49;;;;;;;26.67;15.10;;;6.80;99.90;;;;;;5079986;28;20539;-74
2021/04/30 04:32:14;;;;;;;18.30;15.20;;;6.90;99.90;;;;;;5082269;28;20438;-76
2021/04/30 04:34:40;;;;;;;17.60;13.47;;;6.90;99.90;;;;;;5086482;28;20197;-76
2021/04/30 04:37:05;;;;;;;21.00;15.37;;;6.90;99.90;;;;;;5081227;28;20228;-76
2021/04/30 04:39:32;;;;;;;22.20;15.67;;;6.80;99.90;;;;;;5074072;28;20187;-76
2021/04/30 04:41:59;;;;;;;25.30;15.40;;;6.70;99.90;;;;;;5075003;28;20171;-76
2021/04/30 04:44:25;;;;;;;19.30;14.63;;;6.70;99.90;;;;;;5092904;28;20460;-77
2021/04/30 04:46:50;;;;;;;22.03;13.37;;;6.90;99.90;;;;;;5090558;28;20424;-76
2021/04/30 04:49:16;;;;;;;15.10;13.60;;;7.10;99.90;;;;;;5073386;28;20182;-75
2021/04/30 04:51:41;;;;;;;19.73;15.40;;;7.20;99.90;;;;;;5080204;28;20193;-75
2021/04/30 04:54:07;;;;;;;16.93;14.20;;;7.00;99.90;;;;;;5072705;28;20240;-76
2021/04/30 04:56:33;;;;;;;15.97;13.20;;;7.00;99.90;;;;;;5073973;28;20221;-75
2021/04/30 04:58:59;;;;;;;22.30;15.27;;;7.10;99.90;;;;;;5075394;28;20587;-76
2021/04/30 05:01:25;;;;;;;16.27;14.50;;;7.00;99.90;;;;;;5083137;28;20937;-76
2021/04/30 05:03:50;;;;;;;20.17;14.03;;;7.00;99.90;;;;;;5073117;28;20596;-76
2021/04/30 05:06:16;;;;;;;22.73;14.27;;;6.90;99.90;;;;;;5074368;28;20421;-76
2021/04/30 05:08:42;;;;;;;24.73;13.90;;;6.90;99.90;;;;;;5075280;28;20182;-76
2021/04/30 05:11:07;;;;;;;20.77;13.60;;;7.00;99.90;;;;;;5081138;28;20169;-76
2021/04/30 05:13:33;;;;;;;17.93;14.27;;;7.10;99.90;;;;;;5081254;28;20194;-76
2021/04/30 05:16:00;;;;;;;18.33;14.87;;;7.10;99.90;;;;;;5073561;28;20666;-75
2021/04/30 05:18:26;;;;;;;17.30;13.97;;;7.10;99.90;;;;;;5087987;28;20177;-76
2021/04/30 05:20:55;;;;;;;21.70;13.63;;;7.10;99.90;;;;;;5083624;28;20478;-76
2021/04/30 05:23:21;;;;;;;19.80;14.63;;;7.30;99.90;;;;;;5090236;28;20489;-76
2021/04/30 05:25:48;;;;;;;17.63;14.73;;;7.30;99.90;;;;;;5081294;28;20420;-75
2021/04/30 05:28:14;;;;;;;22.73;15.20;;;7.10;99.90;;;;;;5078473;28;20467;-76
2021/04/30 05:30:39;;;;;;;21.03;14.80;;;7.10;99.90;;;;;;5090776;28;21009;-75
2021/04/30 05:33:05;;;;;;;24.70;15.93;;;7.00;99.90;;;;;;5077631;28;20458;-76
2021/04/30 05:35:31;;;;;;;17.00;13.53;;;7.00;99.90;;;;;;5090998;28;20565;-76
2021/04/30 05:37:57;;;;;;;21.20;14.63;;;7.00;99.90;;;;;;5078890;28;20438;-76
2021/04/30 05:40:23;;;;;;;17.10;15.10;;;7.00;99.90;;;;;;5079078;28;20213;-76
2021/04/30 05:42:49;;;;;;;29.83;16.23;;;7.00;99.90;;;;;;5073195;28;20511;-75
2021/04/30 05:45:15;;;;;;;20.43;14.60;;;7.00;99.90;;;;;;5086419;28;21107;-76
2021/04/30 05:47:40;;;;;;;20.37;15.10;;;7.00;99.90;;;;;;5089838;28;20650;-76
2021/04/30 05:50:07;;;;;;;19.90;13.83;;;6.90;99.90;;;;;;5079301;28;20507;-76
2021/04/30 05:52:32;;;;;;;20.37;14.40;;;7.00;99.90;;;;;;5086313;28;20169;-76
2021/04/30 05:54:59;;;;;;;22.70;14.77;;;7.10;99.90;;;;;;5084579;28;20420;-76
2021/04/30 05:57:24;;;;;;;18.40;14.87;;;7.20;99.90;;;;;;5091658;28;20166;-76
2021/04/30 05:59:50;;;;;;;17.37;14.40;;;7.20;99.90;;;;;;5070985;28;20489;-75
2021/04/30 06:02:15;;;;;;;17.80;15.13;;;7.20;99.90;;;;;;5073292;28;20257;-75
2021/04/30 06:04:41;;;;;;;22.83;13.90;;;7.40;99.90;;;;;;5082740;28;20280;-75
2021/04/30 06:07:06;;;;;;;23.33;14.13;;;7.50;99.90;;;;;;5076480;28;20166;-76
2021/04/30 06:09:32;;;;;;;26.43;15.97;;;7.40;99.90;;;;;;5078601;28;20170;-76
2021/04/30 06:11:58;;;;;;;20.77;13.57;;;7.50;99.90;;;;;;5092200;28;20177;-76
2021/04/30 06:14:30;;;;;;;20.83;14.83;;;7.60;99.90;;;;;;5091949;28;20564;-76
2021/04/30 06:16:56;;;;;;;21.17;14.50;;;7.70;99.90;;;;;;5076089;28;20185;-76
2021/04/30 06:19:21;;;;;;;23.67;15.00;;;7.50;99.90;;;;;;5072774;28;20499;-75
2021/04/30 06:21:47;;;;;;;18.40;14.27;;;7.40;99.90;;;;;;5078500;28;20535;-76
2021/04/30 06:24:12;;;;;;;17.50;14.43;;;7.50;99.90;;;;;;5093077;28;20648;-75
2021/04/30 06:26:38;;;;;;;22.87;16.87;;;7.60;99.90;;;;;;5079088;28;20722;-76
2021/04/30 06:29:03;;;;;;;22.23;15.80;;;7.50;99.90;;;;;;5072235;28;20568;-75
2021/04/30 06:31:29;;;;;;;20.60;15.20;;;7.60;99.90;;;;;;5074622;28;20233;-76
2021/04/30 06:33:54;;;;;;;18.43;15.40;;;7.60;99.90;;;;;;5080393;28;20197;-76
2021/04/30 06:36:21;;;;;;;22.00;13.87;;;7.70;99.90;;;;;;5090783;28;20178;-76
2021/04/30 06:38:47;;;;;;;18.30;16.00;;;7.80;99.90;;;;;;5077033;28;20673;-76
2021/04/30 06:41:13;;;;;;;19.50;14.63;;;8.00;99.90;;;;;;5072209;28;20562;-76
2021/04/30 06:43:38;;;;;;;22.07;15.57;;;8.00;99.90;;;;;;5086792;28;20970;-76
2021/04/30 06:46:04;;;;;;;16.30;14.60;;;8.10;99.90;;;;;;5075685;28;20170;-74
2021/04/30 06:48:30;;;;;;;23.70;15.90;;;8.20;99.90;;;;;;5077728;28;20651;-74
2021/04/30 06:50:56;;;;;;;25.37;15.50;;;8.30;99.90;;;;;;5080429;28;20186;-73
2021/04/30 06:53:21;;;;;;;18.83;14.23;;;8.30;99.90;;;;;;5092885;28;20188;-77
2021/04/30 06:55:47;;;;;;;17.80;15.80;;;8.40;99.90;;;;;;5082051;28;20182;-78
2021/04/30 06:58:12;;;;;;;18.27;15.30;;;8.50;99.90;;;;;;5074121;28;20176;-77
2021/04/30 07:00:38;;;;;;;23.03;16.50;;;8.40;99.90;;;;;;5073618;28;20205;-77
2021/04/30 07:03:03;;;;;;;17.83;14.17;;;8.60;99.90;;;;;;5073289;28;20198;-77
2021/04/30 07:05:29;;;;;;;24.07;16.50;;;8.60;99.90;;;;;;5090524;28;20177;-77
2021/04/30 07:07:57;;;;;;;23.20;14.33;;;8.70;99.90;;;;;;5085732;28;20261;-77
2021/04/30 07:10:23;;;;;;;25.23;15.23;;;8.80;99.90;;;;;;5073552;28;20525;-77
2021/04/30 07:12:49;;;;;;;22.10;14.90;;;8.90;99.90;;;;;;5083213;28;20447;-77
2021/04/30 07:15:17;;;;;;;17.30;14.00;;;8.90;99.90;;;;;;5092844;28;20427;-76
2021/04/30 07:17:43;;;;;;;19.00;15.20;;;8.90;99.90;;;;;;5080209;28;20436;-78
2021/04/30 07:20:09;;;;;;;18.63;14.20;;;8.80;99.90;;;;;;5071630;28;20438;-78
2021/04/30 07:22:34;;;;;;;28.37;14.80;;;9.00;99.90;;;;;;5088122;28;20197;-78
2021/04/30 07:25:00;;;;;;;18.73;15.17;;;8.90;99.90;;;;;;5078860;28;20499;-78
2021/04/30 07:27:25;;;;;;;22.37;14.73;;;8.90;99.90;;;;;;5090333;28;20166;-77
2021/04/30 07:29:51;;;;;;;18.27;15.20;;;9.00;99.90;;;;;;5073777;28;20532;-77
2021/04/30 07:32:17;;;;;;;23.93;16.17;;;9.00;99.90;;;;;;5072987;28;20174;-77
2021/04/30 07:34:42;;;;;;;22.33;16.07;;;8.90;99.90;;;;;;5072127;28;20197;-77
2021/04/30 07:37:08;;;;;;;20.03;16.07;;;9.00;99.90;;;;;;5071111;28;20189;-78
2021/04/30 07:39:34;;;;;;;18.73;15.27;;;9.10;99.90;;;;;;5087595;28;20181;-78
2021/04/30 07:42:00;;;;;;;20.13;15.17;;;8.80;99.90;;;;;;5090159;28;20638;-78
2021/04/30 07:44:26;;;;;;;16.27;13.60;;;9.00;99.90;;;;;;5091875;28;20450;-78
2021/04/30 07:46:51;;;;;;;19.83;13.13;;;9.10;99.90;;;;;;5090928;28;20395;-78
2021/04/30 07:49:17;;;;;;;29.73;16.10;;;9.10;99.90;;;;;;5091620;28;20165;-78
2021/04/30 07:51:43;;;;;;;26.03;15.93;;;9.10;99.90;;;;;;5083721;28;20235;-78
2021/04/30 07:54:08;;;;;;;20.70;17.07;;;9.10;99.90;;;;;;5080821;28;20200;-77
2021/04/30 07:56:34;;;;;;;23.07;17.53;;;9.10;99.90;;;;;;5060605;28;20607;-77
2021/04/30 07:58:59;;;;;;;21.00;15.90;;;9.30;99.90;;;;;;5066275;28;20166;-77
2021/04/30 08:01:25;;;;;;;19.13;14.77;;;9.30;99.90;;;;;;5059971;28;20187;-77
2021/04/30 08:03:51;;;;;;;20.43;15.10;;;9.40;99.90;;;;;;5074760;28;20251;-78
2021/04/30 08:06:17;;;;;;;16.53;14.80;;;9.60;99.90;;;;;;5065504;28;20174;-78
2021/04/30 08:08:42;;;;;;;23.90;15.50;;;9.70;99.90;;;;;;5067119;28;20421;-77
2021/04/30 08:11:08;;;;;;;18.30;14.67;;;9.70;99.90;;;;;;5065312;28;20230;-77
2021/04/30 08:13:37;;;;;;;16.97;15.20;;;9.80;99.90;;;;;;5072700;28;20194;-77
2021/04/30 08:16:03;;;;;;;28.20;15.37;;;9.80;99.90;;;;;;5063442;28;20532;-77
2021/04/30 08:18:29;;;;;;;25.40;16.40;;;9.90;99.90;;;;;;5069561;28;20970;-77
2021/04/30 08:20:55;;;;;;;28.33;14.80;;;9.90;99.90;;;;;;5075771;28;20431;-77
2021/04/30 08:23:20;;;;;;;24.43;15.87;;;9.70;99.90;;;;;;5090484;28;20271;-78
2021/04/30 08:25:46;;;;;;;23.00;17.50;;;9.60;99.90;;;;;;5090981;28;20177;-77
2021/04/30 08:28:12;;;;;;;25.73;15.70;;;9.50;99.90;;;;;;5095514;28;20166;-77
2021/04/30 08:30:37;;;;;;;21.93;15.70;;;9.60;99.90;;;;;;5094620;28;20181;-78
2021/04/30 08:33:03;;;;;;;25.90;16.80;;;9.50;99.90;;;;;;5093871;28;20193;-77
2021/04/30 08:35:29;;;;;;;18.33;15.87;;;9.40;99.90;;;;;;5095209;28;20162;-76
2021/04/30 08:37:56;;;;;;;36.67;17.47;;;9.50;99.90;;;;;;5094693;28;20169;-77
2021/04/30 08:40:21;;;;;;;28.90;16.87;;;9.60;99.90;;;;;;5096169;28;20430;-77
2021/04/30 08:42:50;;;;;;;23.50;16.43;;;9.60;99.90;;;;;;5079716;28;20449;-77
2021/04/30 08:45:15;;;;;;;24.70;16.27;;;9.60;99.90;;;;;;5068288;28;20190;-77
2021/04/30 08:47:43;;;;;;;24.93;15.60;;;9.50;99.90;;;;;;5082364;28;20573;-77
2021/04/30 08:50:09;;;;;;;28.43;17.77;;;9.40;99.90;;;;;;5096015;28;20161;-78
2021/04/30 08:52:34;;;;;;;20.40;16.37;;;9.50;99.90;;;;;;5096189;28;20540;-75
2021/04/30 08:55:05;;;;;;;22.97;18.70;;;9.60;99.90;;;;;;5078258;28;20423;-77
2021/04/30 08:57:31;;;;;;;22.30;16.30;;;9.60;99.90;;;;;;5094152;28;20173;-78
2021/04/30 08:59:59;;;;;;;16.33;13.43;;;9.60;99.90;;;;;;5094311;28;20423;-77
2021/04/30 09:02:30;;;;;;;29.77;16.70;;;9.50;99.90;;;;;;5098052;28;20400;-78
2021/04/30 09:04:57;;;;;;;21.87;15.60;;;9.70;99.90;;;;;;5097128;28;20473;-78
2021/04/30 09:07:25;;;;;;;18.93;15.10;;;9.80;99.90;;;;;;5096000;28;20424;-78
2021/04/30 09:10:07;;;;;;;21.83;15.17;;;9.80;99.90;;;;;;5095468;28;20936;-77
2021/04/30 09:12:34;;;;;;;23.70;15.67;;;9.90;99.90;;;;;;5093565;28;20428;-77
2021/04/30 09:15:00;;;;;;;26.57;15.30;;;9.80;99.90;;;;;;5093012;28;20480;-77
2021/04/30 09:17:28;;;;;;;30.40;16.50;;;9.80;99.90;;;;;;5093469;28;21170;-78
2021/04/30 09:19:59;;;;;;;20.23;17.40;;;9.70;99.90;;;;;;5094131;28;20408;-78
2021/04/30 09:22:27;;;;;;;20.43;16.50;;;10.00;99.90;;;;;;5093605;28;20457;-77
2021/04/30 09:24:58;;;;;;;25.43;16.33;;;10.20;99.90;;;;;;5094671;28;20815;-77
2021/04/30 09:27:34;;;;;;;23.37;16.63;;;10.40;99.90;;;;;;5081097;28;20517;-77
2021/04/30 09:30:15;;;;;;;33.40;17.50;;;10.50;99.90;;;;;;5083217;28;20451;-78
2021/04/30 09:33:10;;;;;;;27.00;17.63;;;10.70;99.90;;;;;;5064207;28;20878;-78
2021/04/30 09:35:45;;;;;;;23.23;18.50;;;10.90;99.90;;;;;;5053978;28;20409;-77
2021/04/30 09:38:27;;;;;;;30.23;15.90;;;11.00;99.90;;;;;;5065969;28;20428;-79
2021/04/30 09:41:01;;;;;;;24.30;16.40;;;11.10;99.90;;;;;;5075802;28;20423;-79
2021/04/30 09:43:42;;;;;;;23.30;15.10;;;11.10;99.90;;;;;;5086803;28;20508;-78
2021/04/30 09:46:31;;;;;;;21.90;15.73;;;11.10;99.90;;;;;;5096782;28;20420;-78
2021/04/30 09:49:08;;;;;;;44.63;17.07;;;11.00;99.90;;;;;;5095715;28;20840;-79
2021/04/30 09:51:51;;;;;;;25.10;14.03;;;11.10;99.90;;;;;;5095161;28;20430;-78
2021/04/30 09:54:23;;;;;;;27.13;15.00;;;11.20;99.90;;;;;;5094541;28;20449;-77
2021/04/30 09:57:23;;;;;;;18.40;13.90;;;11.30;99.90;;;;;;5096985;28;20472;-78
2021/04/30 10:00:08;;;;;;;21.57;15.47;;;11.40;99.90;;;;;;5091877;28;20427;-78
2021/04/30 10:02:35;;;;;;;22.37;14.40;;;11.50;99.90;;;;;;5096673;28;20447;-78
2021/04/30 10:05:12;;;;;;;18.90;14.27;;;11.70;99.90;;;;;;5093757;28;21054;-77
2021/04/30 10:07:39;;;;;;;23.50;15.60;;;11.80;99.90;;;;;;5095345;28;20450;-78
2021/04/30 10:10:08;;;;;;;23.23;15.07;;;11.80;99.90;;;;;;5097760;28;20396;-78
2021/04/30 10:12:35;;;;;;;21.70;15.80;;;12.00;99.90;;;;;;5095600;28;20431;-79
2021/04/30 10:15:01;;;;;;;20.67;16.10;;;11.80;99.90;;;;;;5095705;28;20436;-78
2021/04/30 10:17:27;;;;;;;20.30;15.97;;;12.00;99.90;;;;;;5092572;28;20434;-78
2021/04/30 10:19:53;;;;;;;26.53;16.40;;;12.20;99.90;;;;;;5092004;28;20931;-78
2021/04/30 10:22:21;;;;;;;20.73;15.33;;;12.70;99.90;;;;;;5092924;28;20173;-77
2021/04/30 10:24:50;;;;;;;16.27;14.40;;;13.20;99.90;;;;;;5094588;28;20886;-77
2021/04/30 10:27:18;;;;;;;20.07;15.87;;;13.60;99.90;;;;;;5090706;28;20419;-77
2021/04/30 10:29:52;;;;;;;19.90;15.57;;;13.90;99.90;;;;;;5092529;28;20427;-77
2021/04/30 10:32:20;;;;;;;17.50;13.87;;;14.10;99.90;;;;;;5092361;28;20496;-77
2021/04/30 10:34:48;;;;;;;19.40;15.23;;;14.10;99.90;;;;;;5054132;28;20421;-77
2021/04/30 10:37:25;;;;;;;26.03;17.73;;;14.20;99.90;;;;;;5073778;28;20454;-78
2021/04/30 10:39:56;;;;;;;22.33;17.07;;;14.10;99.90;;;;;;5094195;28;20423;-78
2021/04/30 10:42:27;;;;;;;24.73;16.90;;;14.10;99.90;;;;;;5090667;28;20424;-78
2021/04/30 10:45:01;;;;;;;19.87;17.13;;;13.90;99.90;;;;;;5079083;28;20885;-79
2021/04/30 10:47:27;;;;;;;19.97;16.13;;;14.00;99.90;;;;;;5072763;28;20420;-78
2021/04/30 10:50:09;;;;;;;23.27;17.47;;;14.10;99.90;;;;;;5075011;28;20947;-78
2021/04/30 10:52:35;;;;;;;22.00;16.37;;;14.10;99.90;;;;;;5084261;28;20511;-79
2021/04/30 10:55:01;;;;;;;28.23;18.03;;;14.20;99.90;;;;;;5084055;28;20475;-77
2021/04/30 10:57:27;;;;;;;25.00;17.90;;;14.10;99.90;;;;;;5078374;28;20184;-79
2021/04/30 10:59:53;;;;;;;19.63;17.30;;;13.90;99.90;;;;;;5088599;28;20424;-78
2021/04/30 11:05:11;;;;;;;21.23;16.93;;;13.60;99.90;;;;;;5090828;28;20466;-78
2021/04/30 11:07:38;;;;;;;22.80;16.43;;;13.50;99.90;;;;;;5085201;28;20465;-78
2021/04/30 11:10:22;;;;;;;22.87;17.07;;;13.40;99.90;;;;;;5088239;28;20434;-78
2021/04/30 11:12:59;;;;;;;37.30;26.50;;;13.60;99.90;;;;;;5060542;28;20451;-78
2021/04/30 11:15:53;;;;;;;25.17;18.00;;;13.60;99.90;;;;;;5076167;28;20421;-78
2021/04/30 11:18:23;;;;;;;22.93;17.93;;;13.70;99.90;;;;;;5086441;28;20459;-77
2021/04/30 11:21:09;;;;;;;24.07;18.27;;;13.70;99.90;;;;;;5090531;28;20458;-78
2021/04/30 11:23:39;;;;;;;24.57;16.70;;;13.70;99.90;;;;;;5086109;28;20467;-77
2021/04/30 11:26:08;;;;;;;25.83;17.73;;;13.70;99.90;;;;;;5077573;28;20928;-78
2021/04/30 11:28:34;;;;;;;21.97;19.57;;;13.70;99.90;;;;;;5088519;28;20483;-78
2021/04/30 11:31:27;;;;;;;26.73;19.47;;;13.60;99.90;;;;;;5087881;28;20435;-78
2021/04/30 11:34:18;;;;;;;23.27;17.50;;;13.60;99.90;;;;;;5084614;28;20201;-78
2021/04/30 11:36:56;;;;;;;25.30;18.80;;;13.50;99.90;;;;;;5083309;28;20911;-78
2021/04/30 11:39:25;;;;;;;23.80;17.93;;;13.30;99.90;;;;;;5083921;28;20436;-78
2021/04/30 11:41:55;;;;;;;28.37;20.30;;;13.30;99.90;;;;;;5078352;28;20500;-79
2021/04/30 11:44:20;;;;;;;25.70;18.93;;;13.30;99.90;;;;;;5086175;28;20474;-79
2021/04/30 11:46:59;;;;;;;21.70;18.90;;;13.20;99.90;;;;;;5086625;28;20420;-79
2021/04/30 11:49:25;;;;;;;24.20;18.87;;;13.30;99.90;;;;;;5089487;28;20174;-79
2021/04/30 11:51:50;;;;;;;28.93;20.20;;;13.30;99.90;;;;;;5092458;28;20483;-79
2021/04/30 11:54:25;;;;;;;28.83;19.70;;;13.40;99.90;;;;;;5083990;28;20500;-80
2021/04/30 11:56:59;;;;;;;30.57;18.87;;;13.40;99.90;;;;;;5084061;28;20185;-79
2021/04/30 11:59:24;;;;;;;29.00;19.70;;;13.60;99.90;;;;;;5084964;28;20431;-79
2021/04/30 12:02:10;;;;;;;25.27;18.67;;;13.80;99.90;;;;;;5088409;28;20830;-78
2021/04/30 12:04:50;;;;;;;22.07;18.50;;;13.90;99.90;;;;;;5090531;28;20209;-78
2021/04/30 12:07:17;;;;;;;29.53;18.87;;;14.10;99.90;;;;;;5083431;28;20451;-78
2021/04/30 12:09:43;;;;;;;24.50;18.20;;;14.20;99.90;;;;;;5081781;28;20420;-78
2021/04/30 12:12:21;;;;;;;30.23;19.23;;;14.40;99.90;;;;;;5080722;28;20459;-79
2021/04/30 12:14:50;;;;;;;26.77;17.50;;;14.50;99.90;;;;;;5081805;28;20439;-78
2021/04/30 12:17:24;;;;;;;22.13;19.23;;;14.80;99.90;;;;;;5090485;28;20428;-77
2021/04/30 12:20:05;;;;;;;28.10;18.80;;;14.80;99.90;;;;;;5072515;28;20473;-78
2021/04/30 12:22:30;;;;;;;29.17;20.13;;;15.00;99.90;;;;;;5081134;28;20420;-78
2021/04/30 12:25:32;;;;;;;25.43;18.20;;;15.20;99.90;;;;;;5093791;28;20510;-77
2021/04/30 12:28:22;;;;;;;27.20;19.13;;;15.30;99.90;;;;;;5083993;28;20172;-78
2021/04/30 12:31:11;;;;;;;29.23;18.63;;;15.50;99.90;;;;;;5079728;28;20427;-76
2021/04/30 12:33:46;;;;;;;22.93;19.57;;;15.80;99.90;;;;;;5076145;28;20455;-78
2021/04/30 12:36:17;;;;;;;21.03;18.37;;;15.80;99.90;;;;;;5070466;28;20438;-78
2021/04/30 12:38:45;;;;;;;24.83;19.73;;;16.30;99.90;;;;;;5072261;28;20972;-78
2021/04/30 12:41:13;;;;;;;26.33;19.93;;;17.00;99.90;;;;;;5070096;28;20440;-78
2021/04/30 12:43:39;;;;;;;20.23;18.00;;;17.30;99.90;;;;;;5070650;28;20460;-78